Time;durP1;ratioP1;P1;durP2;ratioP2;P2;SDS_P1;SDS_P2;PMS_P1;PMS_P2;Temp;Humidity;BMP_temperature;BMP_pressure;BME280_temperature;BME280_humidity;BME280_pressure;Samples;Min_cycle;Max_cycle;Signal;HPM_P1;HPM_P2
2021/01/06 00:00:14;;;;;;;1.98;1.48;;;;;;;6.66;72.74;100434.16;5069465;28;20138;-62
2021/01/06 00:02:40;;;;;;;;;;;;;;;6.67;72.54;100433.25;5071402;28;20060;-61
2021/01/06 00:05:08;;;;;;;1.50;1.25;;;;;;;6.68;72.72;100434.13;5073303;28;19920;-61
2021/01/06 00:07:35;;;;;;;1.60;1.50;;;;;;;6.68;72.65;100439.31;5078664;28;20515;-62
2021/01/06 00:10:03;;;;;;;2.08;1.42;;;;;;;6.68;72.39;100431.50;5065344;28;20417;-61
2021/01/06 00:12:29;;;;;;;2.17;1.60;;;;;;;6.68;72.45;100437.56;5052023;28;20049;-61
2021/01/06 00:14:55;;;;;;;2.17;1.75;;;;;;;6.69;72.64;100434.03;5052797;28;20094;-61
2021/01/06 00:17:22;;;;;;;1.77;1.40;;;;;;;6.69;72.70;100430.56;5052976;28;20056;-62
2021/01/06 00:19:48;;;;;;;3.30;1.40;;;;;;;6.69;72.59;100423.59;5052748;28;20041;-62
2021/01/06 00:22:14;;;;;;;1.85;1.52;;;;;;;6.70;72.70;100430.50;5052825;28;20128;-61
2021/01/06 00:24:42;;;;;;;2.25;1.52;;;;;;;6.71;72.90;100426.13;5052560;28;20064;-62
2021/01/06 00:27:08;;;;;;;1.40;1.30;;;;;;;6.73;72.89;100420.84;5040514;28;20045;-61
2021/01/06 00:29:34;;;;;;;3.38;2.13;;;;;;;6.72;72.82;100417.41;5052585;28;20056;-61
2021/01/06 00:32:00;;;;;;;2.78;2.00;;;;;;;6.72;72.83;100417.41;5050915;28;20072;-61
2021/01/06 00:34:27;;;;;;;2.40;1.63;;;;;;;6.72;72.82;100409.59;5052360;28;20053;-62
2021/01/06 00:36:54;;;;;;;1.95;1.75;;;;;;;6.72;72.92;100408.72;5052375;28;20087;-61
2021/01/06 00:39:20;;;;;;;2.38;1.95;;;;;;;6.70;73.14;100404.44;5052274;28;20049;-61
2021/01/06 00:41:48;;;;;;;3.70;2.08;;;;;;;6.70;73.00;100408.78;5052177;28;20508;-61
2021/01/06 00:44:14;;;;;;;4.18;2.35;;;;;;;6.70;73.22;100414.88;5052384;28;20049;-61
2021/01/06 00:46:40;;;;;;;2.72;2.05;;;;;;;6.69;73.01;100412.31;5034599;28;20052;-61
2021/01/06 00:49:06;;;;;;;2.78;1.67;;;;;;;6.70;73.09;100414.00;5052335;28;20448;-61
2021/01/06 00:51:33;;;;;;;2.33;1.70;;;;;;;6.69;73.19;100428.81;5052361;28;20060;-61
2021/01/06 00:53:59;;;;;;;1.95;1.30;;;;;;;6.70;73.35;100434.88;5051829;28;20405;-61
2021/01/06 00:56:31;;;;;;;2.33;2.00;;;;;;;6.72;73.37;100438.25;5052278;28;20044;-61
2021/01/06 00:58:58;;;;;;;2.35;1.70;;;;;;;6.72;73.35;100443.47;5051985;28;20524;-61
2021/01/06 01:01:26;;;;;;;2.28;1.63;;;;;;;6.74;73.34;100446.84;5046309;28;20049;-61
2021/01/06 01:03:53;;;;;;;2.53;1.70;;;;;;;6.75;73.38;100450.31;5044538;28;20049;-62
2021/01/06 01:06:27;;;;;;;2.75;1.98;;;;;;;6.75;73.16;100458.97;5052162;28;20124;-61
2021/01/06 01:08:54;;;;;;;2.67;1.67;;;;;;;6.77;73.22;100461.53;5051931;28;20131;-61
2021/01/06 01:11:22;;;;;;;2.45;1.95;;;;;;;6.78;73.47;100460.59;5051903;28;20044;-61
2021/01/06 01:13:50;;;;;;;2.60;1.80;;;;;;;6.79;73.23;100465.75;5051937;28;20049;-62
2021/01/06 01:16:18;;;;;;;2.17;1.95;;;;;;;6.78;73.14;100458.84;5052042;28;20041;-61
2021/01/06 01:18:44;;;;;;;2.63;1.90;;;;;;;6.79;73.11;100464.91;5052125;28;20414;-62
2021/01/06 01:21:10;;;;;;;2.75;2.42;;;;;;;6.80;73.19;100471.81;5051719;28;20409;-61
2021/01/06 01:23:36;;;;;;;3.05;1.83;;;;;;;6.81;73.30;100473.50;5051511;28;20049;-61
2021/01/06 01:26:03;;;;;;;2.13;1.80;;;;;;;6.82;73.17;100480.44;5052112;28;20056;-61
2021/01/06 01:28:29;;;;;;;3.17;2.10;;;;;;;6.81;73.21;100476.94;5034167;28;20045;-61
2021/01/06 01:30:56;;;;;;;3.22;1.98;;;;;;;6.82;73.32;100490.84;5051951;28;20420;-62
2021/01/06 01:33:25;;;;;;;4.47;2.05;;;;;;;6.83;73.46;100488.19;5051651;28;20513;-61
2021/01/06 01:35:56;;;;;;;2.50;1.90;;;;;;;6.84;73.51;100483.78;5051812;28;20114;-61
2021/01/06 01:38:26;;;;;;;2.20;2.00;;;;;;;6.84;73.42;100491.63;5051863;28;20045;-61
2021/01/06 01:41:10;;;;;;;3.15;2.00;;;;;;;6.85;73.49;100498.53;5052034;28;20041;-62
2021/01/06 01:43:37;;;;;;;2.20;1.85;;;;;;;6.85;73.61;100493.31;5051707;28;20053;-62
2021/01/06 01:46:04;;;;;;;3.95;2.10;;;;;;;6.85;73.37;100490.72;5051924;28;20049;-62
2021/01/06 01:48:36;;;;;;;3.25;2.30;;;;;;;6.84;73.39;100482.03;5051651;28;20045;-61
2021/01/06 01:51:18;;;;;;;5.72;2.63;;;;;;;6.83;73.22;100480.34;5051852;28;20103;-61
2021/01/06 01:54:00;;;;;;;2.20;2.00;;;;;;;6.84;73.31;100486.41;5051272;28;20476;-61
2021/01/06 01:56:36;;;;;;;3.67;2.03;;;;;;;6.84;73.41;100484.66;5051887;28;20049;-61
2021/01/06 01:59:06;;;;;;;4.53;2.50;;;;;;;6.85;73.41;100494.16;5051855;28;20037;-61
2021/01/06 02:01:34;;;;;;;3.97;2.22;;;;;;;6.86;73.26;100493.25;5051781;28;20059;-61
2021/01/06 02:04:08;;;;;;;2.95;2.20;;;;;;;6.86;73.37;100488.03;5051889;28;20045;-61
2021/01/06 02:06:41;;;;;;;3.92;2.50;;;;;;;6.85;73.23;100493.31;5038369;28;20049;-61
2021/01/06 02:09:23;;;;;;;2.92;2.10;;;;;;;6.83;73.08;100487.31;5051140;28;20406;-61
2021/01/06 02:12:12;;;;;;;3.08;2.25;;;;;;;6.82;73.31;100483.03;5039226;28;20041;-61
2021/01/06 02:14:59;;;;;;;3.28;2.38;;;;;;;6.79;72.99;100489.22;5051469;28;20052;-61
2021/01/06 02:17:25;;;;;;;3.17;2.22;;;;;;;6.78;73.17;100490.16;5051553;28;20049;-61
2021/01/06 02:19:51;;;;;;;3.63;2.88;;;;;;;6.78;73.18;100484.06;5051329;28;20056;-62
2021/01/06 02:22:20;;;;;;;2.97;2.42;;;;;;;6.78;73.27;100482.31;5051601;28;20041;-62
2021/01/06 02:24:49;;;;;;;3.45;2.47;;;;;;;6.78;73.25;100479.72;5051108;28;20045;-61
2021/01/06 02:27:17;;;;;;;2.80;2.30;;;;;;;6.78;73.44;100478.84;5051507;28;20056;-61
2021/01/06 02:29:44;;;;;;;3.90;2.70;;;;;;;6.80;73.52;100483.06;5051371;28;20409;-61
2021/01/06 02:32:11;;;;;;;3.88;2.70;;;;;;;6.81;73.36;100486.56;5051469;28;20049;-61
2021/01/06 02:34:39;;;;;;;5.88;2.40;;;;;;;6.81;73.46;100490.00;5052347;28;20055;-61
2021/01/06 02:37:07;;;;;;;7.60;3.67;;;;;;;6.79;73.36;100485.75;5054708;28;20037;-62
2021/01/06 02:39:35;;;;;;;2.83;2.38;;;;;;;6.79;73.25;100489.22;5054606;28;20060;-62
2021/01/06 02:42:02;;;;;;;3.03;2.47;;;;;;;6.77;73.41;100492.81;5054632;28;20094;-61
2021/01/06 02:44:29;;;;;;;4.22;2.90;;;;;;;6.75;73.41;100484.22;5054880;28;20059;-61
2021/01/06 02:46:56;;;;;;;4.07;2.78;;;;;;;6.74;73.25;100488.56;5054561;28;20638;-61
2021/01/06 02:49:23;;;;;;;3.38;2.90;;;;;;;6.74;73.54;100490.34;5054811;28;20106;-61
2021/01/06 02:52:03;;;;;;;4.05;2.88;;;;;;;6.72;73.28;100492.16;5054437;28;20492;-61
2021/01/06 02:54:35;;;;;;;3.70;2.95;;;;;;;6.72;73.41;100481.72;5054327;28;20053;-61
2021/01/06 02:57:04;;;;;;;5.75;2.60;;;;;;;6.73;73.55;100491.25;5054478;28;20041;-62
2021/01/06 02:59:36;;;;;;;5.95;2.85;;;;;;;6.72;73.69;100485.19;5054596;28;20056;-62
2021/01/06 03:02:03;;;;;;;4.13;2.97;;;;;;;6.72;73.89;100490.41;5054240;28;20061;-61
2021/01/06 03:04:36;;;;;;;3.40;3.05;;;;;;;6.72;73.57;100484.34;5054422;28;20512;-61
2021/01/06 03:07:05;;;;;;;3.40;2.80;;;;;;;6.72;73.21;100486.94;5054469;28;20044;-61
2021/01/06 03:09:41;;;;;;;4.07;2.63;;;;;;;6.70;73.42;100477.44;5053957;28;20144;-62
2021/01/06 03:12:34;;;;;;;4.43;2.58;;;;;;;6.71;73.48;100491.31;5054262;28;20490;-61
2021/01/06 03:15:00;;;;;;;3.15;2.55;;;;;;;6.70;73.42;100494.84;5054185;28;20048;-62
2021/01/06 03:17:30;;;;;;;3.63;2.38;;;;;;;6.69;73.32;100488.78;5054189;28;20048;-61
2021/01/06 03:20:15;;;;;;;4.30;2.70;;;;;;;6.68;73.74;100489.69;5053820;28;20061;-61
2021/01/06 03:22:48;;;;;;;4.47;2.65;;;;;;;6.68;73.30;100487.09;5054093;28;20053;-61
2021/01/06 03:25:17;;;;;;;3.55;2.90;;;;;;;6.66;73.36;100490.69;5053780;28;20049;-61
2021/01/06 03:27:48;;;;;;;4.35;2.67;;;;;;;6.65;73.21;100479.41;5053847;28;20049;-61
2021/01/06 03:30:22;;;;;;;4.13;2.55;;;;;;;6.63;73.26;100483.84;5053922;28;20056;-62
2021/01/06 03:32:48;;;;;;;3.15;2.60;;;;;;;6.63;73.15;100483.84;5053794;28;20048;-61
2021/01/06 03:35:40;;;;;;;3.20;2.55;;;;;;;6.62;73.09;100487.34;5053700;28;20505;-61
2021/01/06 03:38:15;;;;;;;4.47;2.72;;;;;;;6.62;72.83;100495.19;5053739;28;20056;-61
2021/01/06 03:40:45;;;;;;;3.50;2.88;;;;;;;6.62;73.00;100496.97;5041186;28;20045;-61
2021/01/06 03:43:12;;;;;;;2.63;2.25;;;;;;;6.62;72.77;100500.41;5053706;28;20048;-62
2021/01/06 03:45:42;;;;;;;5.95;2.80;;;;;;;6.61;73.04;100503.91;5053511;28;20351;-61
2021/01/06 03:48:21;;;;;;;3.70;2.45;;;;;;;6.61;72.86;100503.06;5053497;28;20056;-61
2021/01/06 03:50:51;;;;;;;3.50;2.78;;;;;;;6.61;72.70;100503.06;5053610;28;20098;-61
2021/01/06 03:53:38;;;;;;;3.22;2.45;;;;;;;6.60;72.89;100504.00;5053262;28;20055;-61
2021/01/06 03:56:19;;;;;;;3.55;3.00;;;;;;;6.61;72.73;100505.69;5041492;28;20041;-62
2021/01/06 03:59:06;;;;;;;3.45;2.90;;;;;;;6.58;72.73;100506.66;5053201;28;20171;-61
2021/01/06 04:01:52;;;;;;;3.70;2.70;;;;;;;6.57;72.68;100497.16;5053276;28;20045;-61
2021/01/06 04:04:18;;;;;;;;;;;;;;;6.55;72.44;100501.56;5034059;28;20053;-61
2021/01/06 04:06:48;;;;;;;3.60;2.85;;;;;;;6.54;72.55;100494.69;5049256;28;20288;-61
2021/01/06 04:09:49;;;;;;;3.15;2.72;;;;;;;6.53;72.58;100493.00;5049344;28;20045;-62
2021/01/06 04:12:17;;;;;;;3.75;3.00;;;;;;;6.52;72.85;100491.28;5050009;28;20048;-61
2021/01/06 04:14:44;;;;;;;3.72;3.17;;;;;;;6.49;72.65;100492.28;5049403;28;20045;-62
2021/01/06 04:17:17;;;;;;;3.85;3.22;;;;;;;6.49;72.79;100496.66;5049679;28;20057;-61
2021/01/06 04:19:50;;;;;;;3.92;2.95;;;;;;;6.49;72.90;100492.28;5049177;28;20099;-61
2021/01/06 04:22:42;;;;;;;3.25;2.95;;;;;;;6.49;72.91;100501.88;5049627;28;20092;-62
2021/01/06 04:25:22;;;;;;;3.63;2.80;;;;;;;6.49;72.91;100497.50;5036013;28;20037;-61
2021/01/06 04:27:58;;;;;;;4.20;3.13;;;;;;;6.48;72.88;100493.19;5049674;28;20045;-62
2021/01/06 04:30:47;;;;;;;3.90;3.05;;;;;;;6.49;72.93;100500.09;5049670;28;20133;-61
2021/01/06 04:33:16;;;;;;;3.67;3.05;;;;;;;6.48;73.09;100506.22;5049349;28;20107;-62
2021/01/06 04:35:42;;;;;;;3.65;2.95;;;;;;;6.49;73.03;100509.69;5049239;28;20049;-61
2021/01/06 04:38:15;;;;;;;5.05;3.40;;;;;;;6.49;73.19;100513.13;5049329;28;20053;-61
2021/01/06 04:40:45;;;;;;;3.63;3.28;;;;;;;6.49;73.33;100514.91;5049356;28;20045;-61
2021/01/06 04:43:43;;;;;;;4.78;3.55;;;;;;;6.49;73.18;100507.91;5049280;28;20049;-61
2021/01/06 04:46:15;;;;;;;4.53;3.28;;;;;;;6.49;73.17;100500.09;5039638;28;20501;-61
2021/01/06 04:49:05;;;;;;;7.63;3.67;;;;;;;6.51;73.39;100510.44;5048890;28;20044;-61
2021/01/06 04:51:35;;;;;;;4.80;3.50;;;;;;;6.51;73.29;100515.66;4989589;28;20402;-62
2021/01/06 04:54:29;;;;;;;4.90;3.80;;;;;;;6.51;73.41;100513.06;5047864;28;20049;-62
2021/01/06 04:57:08;;;;;;;5.70;3.92;;;;;;;6.51;73.55;100515.66;5048301;28;20049;-62
2021/01/06 04:59:46;;;;;;;5.38;4.28;;;;;;;6.51;73.38;100513.06;5049226;28;20080;-61
2021/01/06 05:02:26;;;;;;;4.72;4.10;;;;;;;6.51;73.57;100516.53;5049097;28;20057;-61
2021/01/06 05:05:29;;;;;;;5.68;3.65;;;;;;;6.51;73.69;100513.06;5048677;28;20053;-61
2021/01/06 05:08:11;;;;;;;5.47;4.15;;;;;;;6.51;73.46;100526.09;5048709;28;20052;-62
2021/01/06 05:10:50;;;;;;;8.02;4.43;;;;;;;6.49;73.61;100522.72;5048119;28;20140;-61
2021/01/06 05:13:31;;;;;;;6.35;4.65;;;;;;;6.51;73.72;100529.56;5048506;28;20489;-61
2021/01/06 05:16:02;;;;;;;5.38;4.45;;;;;;;6.49;73.63;100531.38;5049015;28;20059;-61
2021/01/06 05:18:28;;;;;;;5.90;4.50;;;;;;;6.49;73.55;100533.97;5049247;28;20047;-61
2021/01/06 05:20:56;;;;;;;7.07;4.93;;;;;;;6.49;73.82;100535.75;5048637;28;20045;-62
2021/01/06 05:23:27;;;;;;;5.72;4.95;;;;;;;6.49;73.91;100538.34;5048397;28;20417;-61
2021/01/06 05:25:56;;;;;;;5.82;4.40;;;;;;;6.49;73.79;100541.81;5048589;28;20485;-61
2021/01/06 05:28:24;;;;;;;6.20;4.72;;;;;;;6.50;73.96;100537.41;5048666;28;20047;-61
2021/01/06 05:30:56;;;;;;;6.03;4.82;;;;;;;6.49;74.10;100544.41;5048536;28;20045;-61
2021/01/06 05:33:26;;;;;;;5.45;4.70;;;;;;;6.50;74.12;100540.91;5048507;28;20493;-62
2021/01/06 05:35:52;;;;;;;4.78;4.28;;;;;;;6.49;73.87;100546.19;5048557;28;20469;-62
2021/01/06 05:38:19;;;;;;;5.95;5.32;;;;;;;6.49;74.14;100554.84;5048603;28;20095;-61
2021/01/06 05:40:45;;;;;;;7.50;4.65;;;;;;;6.49;74.02;100549.63;5048413;28;20508;-61
2021/01/06 05:43:17;;;;;;;5.63;4.40;;;;;;;6.49;74.17;100543.56;5048535;28;20053;-62
2021/01/06 05:45:52;;;;;;;6.57;4.70;;;;;;;6.50;74.04;100551.31;5035325;28;20041;-61
2021/01/06 05:48:43;;;;;;;6.85;4.78;;;;;;;6.51;74.25;100552.16;5048721;28;20093;-61
2021/01/06 05:51:32;;;;;;;5.18;4.22;;;;;;;6.51;74.35;100555.63;5048680;28;20045;-62
2021/01/06 05:54:18;;;;;;;6.68;4.80;;;;;;;6.52;74.33;100561.69;5048002;28;20071;-62
2021/01/06 05:57:10;;;;;;;6.60;5.10;;;;;;;6.53;74.38;100552.94;5048187;28;20052;-62
2021/01/06 05:59:42;;;;;;;5.15;4.63;;;;;;;6.53;74.39;100558.16;5037229;28;20076;-61
2021/01/06 06:02:08;;;;;;;4.97;4.38;;;;;;;6.53;74.21;100559.00;5048301;28;20048;-61
2021/01/06 06:04:37;;;;;;;6.03;5.03;;;;;;;6.53;74.33;100552.94;5048203;28;20520;-62
2021/01/06 06:07:12;;;;;;;7.75;5.18;;;;;;;6.54;74.31;100557.25;5048275;28;20049;-62
2021/01/06 06:09:48;;;;;;;6.87;4.73;;;;;;;6.54;74.39;100554.66;5048968;28;20111;-62
2021/01/06 06:12:20;;;;;;;6.50;4.78;;;;;;;6.55;74.37;100561.53;5052293;28;20366;-61
2021/01/06 06:15:16;;;;;;;6.32;4.75;;;;;;;6.55;74.39;100566.75;5038023;28;20477;-62
2021/01/06 06:18:14;;;;;;;4.97;4.47;;;;;;;6.54;74.30;100562.47;5051793;28;20049;-62
2021/01/06 06:21:12;;;;;;;5.40;4.68;;;;;;;6.56;74.54;100570.22;5051920;28;20052;-61
2021/01/06 06:23:58;;;;;;;6.00;4.70;;;;;;;6.53;74.58;100568.59;5051686;28;20052;-62
2021/01/06 06:26:50;;;;;;;6.05;5.10;;;;;;;6.55;74.54;100579.78;5051994;28;20440;-62
2021/01/06 06:29:24;;;;;;;5.35;4.63;;;;;;;6.54;74.49;100575.50;5052043;28;20049;-62
2021/01/06 06:31:56;;;;;;;5.53;4.75;;;;;;;6.53;74.57;100581.63;5051473;28;20053;-62
2021/01/06 06:34:32;;;;;;;5.97;4.65;;;;;;;6.53;74.66;100587.66;5051478;28;20107;-62
2021/01/06 06:37:06;;;;;;;5.47;4.82;;;;;;;6.53;74.80;100587.66;5051568;28;20056;-62
2021/01/06 06:39:38;;;;;;;5.35;4.57;;;;;;;6.54;74.89;100586.75;5051470;28;20555;-62
2021/01/06 06:42:25;;;;;;;6.45;5.25;;;;;;;6.55;74.65;100598.03;5051479;28;20045;-62
2021/01/06 06:44:55;;;;;;;5.97;5.10;;;;;;;6.54;74.86;100591.97;5051335;28;20049;-62
2021/01/06 06:47:42;;;;;;;6.05;5.10;;;;;;;6.54;74.85;100597.19;5037680;28;20061;-62
2021/01/06 06:50:29;;;;;;;6.80;5.07;;;;;;;6.57;74.83;100595.38;5051549;28;20055;-62
2021/01/06 06:53:28;;;;;;;6.78;5.45;;;;;;;6.56;74.78;100602.34;5051223;28;20052;-62
2021/01/06 06:56:09;;;;;;;5.70;4.80;;;;;;;6.54;74.85;100609.41;5037706;28;20094;-62
2021/01/06 06:58:45;;;;;;;7.43;5.20;;;;;;;6.52;75.13;100606.00;5051534;28;20041;-61
2021/01/06 07:01:14;;;;;;;6.00;5.32;;;;;;;6.52;75.08;100613.81;5051151;28;20056;-61
2021/01/06 07:03:50;;;;;;;6.32;5.72;;;;;;;6.53;75.21;100615.50;5060080;28;20432;-61
2021/01/06 07:06:17;;;;;;;6.13;5.30;;;;;;;6.54;75.13;100619.81;5048853;28;20493;-61
2021/01/06 07:08:49;;;;;;;8.55;6.00;;;;;;;6.54;75.25;100623.25;5053075;28;20048;-61
2021/01/06 07:11:47;;;;;;;5.93;5.00;;;;;;;6.56;75.43;100619.75;5053574;28;20418;-62
2021/01/06 07:14:19;;;;;;;6.82;5.70;;;;;;;6.57;75.32;100631.88;5051175;28;20503;-61
2021/01/06 07:16:52;;;;;;;6.70;5.32;;;;;;;6.57;75.42;100642.31;5037494;28;20040;-62
2021/01/06 07:19:28;;;;;;;6.95;5.35;;;;;;;6.57;75.28;100642.31;5064134;28;20044;-62
2021/01/06 07:22:09;;;;;;;7.40;5.63;;;;;;;6.58;75.44;100642.25;5036894;28;20485;-62
2021/01/06 07:24:35;;;;;;;7.50;6.00;;;;;;;6.58;75.39;100647.44;5050429;28;20051;-62
2021/01/06 07:27:04;;;;;;;7.45;6.70;;;;;;;6.59;75.44;100646.53;5050778;28;20037;-61
2021/01/06 07:29:44;;;;;;;8.75;7.70;;;;;;;6.60;75.53;100660.41;5055156;28;20048;-62
2021/01/06 07:32:11;;;;;;;9.77;8.20;;;;;;;6.60;75.52;100657.81;5052075;28;20037;-61
2021/01/06 07:34:50;;;;;;;12.27;9.48;;;;;;;6.60;75.80;100660.41;5050355;28;20049;-61
2021/01/06 07:37:29;;;;;;;14.70;10.45;;;;;;;6.60;75.67;100660.41;5050474;28;20127;-62
2021/01/06 07:40:11;;;;;;;14.35;10.32;;;;;;;6.61;75.71;100664.72;5050056;28;20075;-62
2021/01/06 07:42:41;;;;;;;15.23;11.10;;;;;;;6.62;75.60;100674.25;5050438;28;20040;-61
2021/01/06 07:45:24;;;;;;;15.15;11.40;;;;;;;6.61;75.67;100686.41;5046011;28;20049;-61
2021/01/06 07:48:05;;;;;;;15.13;11.30;;;;;;;6.61;75.99;100688.19;5049987;28;20049;-62
2021/01/06 07:50:34;;;;;;;17.45;12.07;;;;;;;6.58;75.81;100690.91;5050356;28;20045;-62
2021/01/06 07:53:11;;;;;;;16.55;12.10;;;;;;;6.55;76.08;100699.69;5049851;28;20151;-62
2021/01/06 07:55:42;;;;;;;18.08;12.75;;;;;;;6.53;76.19;100696.34;5050223;28;20037;-62
2021/01/06 07:58:16;;;;;;;18.77;13.63;;;;;;;6.52;76.37;100689.41;5050139;28;20059;-62
2021/01/06 08:01:00;;;;;;;19.42;13.30;;;;;;;6.53;76.25;100694.56;5050034;28;20043;-62
2021/01/06 08:03:48;;;;;;;22.27;14.40;;;;;;;6.56;76.29;100696.19;5050634;28;20542;-62
2021/01/06 08:06:15;;;;;;;27.70;16.67;;;;;;;6.58;76.29;100697.00;5050073;28;20049;-62
2021/01/06 08:08:49;;;;;;;23.98;16.23;;;;;;;6.58;76.31;100697.00;5049599;28;20059;-62
2021/01/06 08:11:19;;;;;;;25.77;16.80;;;;;;;6.60;76.29;100702.13;5049206;28;20044;-62
2021/01/06 08:13:48;;;;;;;28.50;16.75;;;;;;;6.62;76.50;100695.09;5031983;28;20053;-62
2021/01/06 08:16:23;;;;;;;24.15;16.35;;;;;;;6.64;76.50;100695.88;5049563;28;20128;-62
2021/01/06 08:19:22;;;;;;;29.77;17.75;;;;;;;6.66;76.31;100702.72;5049553;28;20060;-62
2021/01/06 08:22:11;;;;;;;37.30;19.52;;;;;;;6.69;76.44;100704.34;5035657;28;20448;-62
2021/01/06 08:24:50;;;;;;;36.67;19.70;;;;;;;6.69;76.52;100707.81;5049189;28;20059;-62
2021/01/06 08:27:36;;;;;;;40.25;19.98;;;;;;;6.69;76.65;100712.19;5049704;28;20049;-62
2021/01/06 08:30:28;;;;;;;34.40;19.80;;;;;;;6.69;76.70;100715.66;5049691;28;20049;-62
2021/01/06 08:33:09;;;;;;;37.30;18.58;;;;;;;6.71;76.84;100723.41;5048604;28;20041;-62
2021/01/06 08:35:39;;;;;;;33.70;18.20;;;;;;;6.72;76.75;100726.84;5036734;28;20052;-62
2021/01/06 08:38:33;;;;;;;33.58;18.45;;;;;;;6.73;76.66;100728.56;5049263;28;20485;-62
2021/01/06 08:41:22;;;;;;;39.45;19.92;;;;;;;6.73;76.81;100736.38;5039304;28;20051;-62
2021/01/06 08:43:49;;;;;;;42.78;20.38;;;;;;;6.71;76.94;100736.44;5049287;28;20048;-63
2021/01/06 08:46:26;;;;;;;36.22;18.98;;;;;;;6.67;76.98;100740.09;5049394;28;20468;-62
2021/01/06 08:48:52;;;;;;;31.55;18.23;;;;;;;6.65;77.19;100750.59;5048896;28;20041;-62
2021/01/06 08:51:33;;;;;;;38.25;18.92;;;;;;;6.63;77.21;100749.78;5049357;28;20045;-62
2021/01/06 08:54:16;;;;;;;58.78;21.85;;;;;;;6.56;77.03;100756.16;5048630;28;20375;-62
2021/01/06 08:56:42;;;;;;;49.13;20.05;;;;;;;6.63;78.48;100755.00;5048636;28;20045;-64
2021/01/06 08:59:26;;;;;;;40.70;18.13;;;;;;;6.61;78.10;100762.03;5048918;28;20037;-65
2021/01/06 09:01:58;;;;;;;36.10;17.75;;;;;;;6.57;77.76;100764.84;5048264;28;20045;-64
2021/01/06 09:04:39;;;;;;;44.53;18.17;;;;;;;6.56;78.02;100769.19;5048688;28;20045;-64
2021/01/06 09:07:15;;;;;;;37.45;17.38;;;;;;;6.54;77.50;100773.63;5048793;28;20093;-64
2021/01/06 09:10:03;;;;;;;36.78;16.73;;;;;;;6.49;77.75;100771.19;5048147;28;20045;-63
2021/01/06 09:12:51;;;;;;;37.70;17.23;;;;;;;6.45;77.92;100768.75;5048778;28;20071;-64
2021/01/06 09:15:40;;;;;;;;;;;;;;;6.47;78.19;100785.19;5023638;28;20049;-64
2021/01/06 09:18:32;;;;;;;37.72;15.85;;;;;;;6.50;78.09;100788.53;5034942;28;19951;-62
2021/01/06 09:21:16;;;;;;;36.20;15.65;;;;;;;6.48;77.96;100787.75;5046597;28;20044;-64
2021/01/06 09:23:48;;;;;;;36.30;16.33;;;;;;;6.45;77.89;100803.50;5047067;28;20050;-64
2021/01/06 09:26:18;;;;;;;36.83;16.02;;;;;;;6.44;78.13;100804.41;5047620;28;20053;-66
2021/01/06 09:28:51;;;;;;;42.03;16.20;;;;;;;6.41;78.13;100812.34;5047685;28;20099;-68
2021/01/06 09:31:18;;;;;;;40.42;17.42;;;;;;;6.42;78.26;100808.00;5046712;28;20048;-63
2021/01/06 09:33:45;;;;;;;38.63;16.17;;;;;;;6.39;78.20;100819.38;5046102;28;20041;-63
2021/01/06 09:36:12;;;;;;;40.78;17.17;;;;;;;6.33;78.25;100824.81;5047887;28;20049;-64
2021/01/06 09:38:51;;;;;;;40.85;17.65;;;;;;;6.29;78.38;100824.09;5046907;28;20095;-64
2021/01/06 09:41:32;;;;;;;41.67;17.92;;;;;;;6.29;78.55;100823.25;5045209;28;20386;-63
2021/01/06 09:44:02;;;;;;;38.80;18.02;;;;;;;6.25;78.72;100826.84;5047132;28;20051;-62
2021/01/06 09:46:37;;;;;;;38.97;17.88;;;;;;;6.24;78.69;100823.41;5052090;28;20052;-63
2021/01/06 09:49:08;;;;;;;37.88;18.65;;;;;;;6.26;78.74;100825.94;5050373;28;20045;-64
2021/01/06 09:51:38;;;;;;;36.22;17.90;;;;;;;6.26;78.74;100831.16;5051965;28;20048;-64
2021/01/06 09:54:12;;;;;;;33.35;18.00;;;;;;;6.25;78.70;100825.13;5051569;28;20037;-65
2021/01/06 09:56:40;;;;;;;37.28;18.92;;;;;;;6.27;78.63;100831.13;5049631;28;20045;-60
2021/01/06 09:59:23;;;;;;;38.08;17.92;;;;;;;6.21;78.59;100826.97;5051959;28;20041;-61
2021/01/06 10:02:26;;;;;;;39.13;17.10;;;;;;;6.21;78.67;100823.53;5051044;28;20413;-62
2021/01/06 10:04:56;;;;;;;36.40;17.33;;;;;;;6.22;78.67;100825.22;5043195;28;20045;-62
2021/01/06 10:07:28;;;;;;;41.63;17.13;;;;;;;6.20;78.81;100824.44;5051464;28;20547;-63
2021/01/06 10:09:59;;;;;;;45.60;17.15;;;;;;;6.21;78.76;100821.78;5050989;28;20052;-63
2021/01/06 10:12:28;;;;;;;37.92;16.42;;;;;;;6.23;78.89;100816.50;5051698;28;20045;-62
2021/01/06 10:15:32;;;;;;;40.63;16.50;;;;;;;6.26;78.59;100825.94;5051256;28;20075;-62
2021/01/06 10:18:17;;;;;;;39.67;17.98;;;;;;;6.29;78.66;100816.28;5051051;28;20041;-62
2021/01/06 10:20:58;;;;;;;43.75;16.95;;;;;;;6.31;78.60;100821.41;5051128;28;20049;-64
2021/01/06 10:24:01;;;;;;;38.30;16.38;;;;;;;6.33;78.53;100817.00;5050205;28;20500;-62
2021/01/06 10:26:38;;;;;;;41.63;17.02;;;;;;;6.37;78.55;100818.59;5050633;28;20053;-62
2021/01/06 10:29:12;;;;;;;36.88;16.92;;;;;;;6.40;78.48;100815.00;5049261;28;20049;-66
2021/01/06 10:31:57;;;;;;;40.33;17.17;;;;;;;6.44;78.48;100816.63;5048665;28;20049;-63
2021/01/06 10:34:34;;;;;;;43.20;18.55;;;;;;;6.46;78.24;100813.03;5049422;28;20041;-63
2021/01/06 10:37:08;;;;;;;33.75;15.27;;;;;;;6.47;78.10;100809.50;5048279;28;20136;-64
2021/01/06 10:39:39;;;;;;;35.85;16.35;;;;;;;6.51;78.07;100802.41;5048494;28;20044;-63
2021/01/06 10:42:17;;;;;;;35.03;16.95;;;;;;;6.51;78.15;100803.28;5049067;28;20043;-68
2021/01/06 10:45:02;;;;;;;34.53;17.23;;;;;;;6.54;77.94;100799.72;5049091;28;20049;-65
2021/01/06 10:47:31;;;;;;;32.13;16.83;;;;;;;6.60;78.08;100794.25;5049047;28;20045;-63
2021/01/06 10:50:04;;;;;;;31.83;16.63;;;;;;;6.67;77.86;100787.03;5049671;28;20045;-63
2021/01/06 10:52:55;;;;;;;31.25;15.20;;;;;;;6.73;77.89;100786.78;5047822;28;20078;-66
2021/01/06 10:55:29;;;;;;;32.25;14.80;;;;;;;6.79;77.50;100785.69;5048166;28;20045;-63
2021/01/06 10:58:35;;;;;;;28.77;14.90;;;;;;;6.80;77.59;100777.78;5050091;28;20486;-64
2021/01/06 11:01:10;;;;;;;30.00;15.00;;;;;;;6.78;77.25;100779.63;5057141;28;20045;-64
2021/01/06 11:04:00;;;;;;;33.47;16.40;;;;;;;6.77;77.41;100774.47;5051009;28;20363;-63
2021/01/06 11:06:44;;;;;;;34.55;16.83;;;;;;;6.84;78.29;100763.75;5065161;28;20119;-63
2021/01/06 11:09:29;;;;;;;29.25;16.25;;;;;;;6.79;77.71;100760.47;5050691;28;20057;-63
2021/01/06 11:12:11;;;;;;;33.55;16.55;;;;;;;6.84;77.64;100755.03;5047716;28;20045;-65
2021/01/06 11:14:59;;;;;;;49.05;28.77;;;;;;;6.87;77.40;100752.31;5045181;28;20107;-61
2021/01/06 11:17:37;;;;;;;65.45;36.45;;;;;;;6.86;77.15;100748.84;5047502;28;20045;-63
2021/01/06 11:20:28;;;;;;;43.95;22.58;;;;;;;6.88;77.21;100742.72;5046850;28;20489;-62
2021/01/06 11:23:20;;;;;;;54.08;28.58;;;;;;;6.87;77.08;100754.94;5048674;28;20106;-61
2021/01/06 11:25:50;;;;;;;91.47;43.20;;;;;;;6.86;77.13;100753.22;5047908;28;20123;-62
2021/01/06 11:28:31;;;;;;;56.33;30.67;;;;;;;6.90;77.30;100765.22;5048175;28;20504;-65
2021/01/06 11:31:19;;;;;;;52.95;29.92;;;;;;;6.97;77.06;100758.84;5048198;28;20052;-67
2021/01/06 11:33:51;;;;;;;33.05;18.42;;;;;;;7.03;76.85;100750.78;5047357;28;20107;-63
2021/01/06 11:36:42;;;;;;;35.47;20.08;;;;;;;7.11;76.90;100754.81;5048271;28;20056;-62
2021/01/06 11:39:12;;;;;;;121.63;59.28;;;;;;;7.14;76.55;100752.09;5047460;28;20064;-63
2021/01/06 11:41:47;;;;;;;75.43;41.05;;;;;;;7.17;76.44;100755.41;5048173;28;20051;-66
2021/01/06 11:44:28;;;;;;;263.20;139.68;;;;;;;7.21;76.32;100750.06;5044228;28;20053;-64
2021/01/06 11:47:10;;;;;;;34.00;20.00;;;;;;;7.23;76.01;100749.06;5046067;28;20153;-63
2021/01/06 11:49:37;;;;;;;48.22;29.95;;;;;;;7.25;75.89;100747.25;5044226;28;20057;-62
2021/01/06 11:52:21;;;;;;;24.95;13.75;;;;;;;7.26;75.68;100748.97;5046995;28;20048;-61
2021/01/06 11:54:52;;;;;;;23.92;14.75;;;;;;;7.26;75.61;100745.50;5045791;28;20846;-61
2021/01/06 11:57:29;;;;;;;26.40;15.18;;;;;;;7.25;75.36;100754.22;5044900;28;20124;-61
2021/01/06 12:00:27;;;;;;;32.90;19.17;;;;;;;7.26;75.47;100745.50;5044763;28;20402;-62
2021/01/06 12:03:34;;;;;;;24.05;13.93;;;;;;;7.26;74.66;100748.09;5028695;28;20052;-61
2021/01/06 12:06:19;;;;;;;28.17;14.93;;;;;;;7.27;74.47;100748.03;5042065;28;20094;-64
2021/01/06 12:09:39;;;;;;;20.58;12.57;;;;;;;7.32;74.35;100745.22;5045134;28;20102;-62